Tiempo atmosférico en la estación meteorológica de Águilas, Murcia (26 m.)



Fecha
DESCASC
Temp. máxima en grados centígrados (hora)
DESCASC
Temp. mínima en grados centígrados (hora)
DESCASC
Temp. media en grados centígrados
DESCASC
Racha de viento máxima en m/sg (hora)
DESCASC
Velocidad máxima media en intervalos de 10 minutos(hora)
DESCASC
Precipitaciones diarias en mm
DESCASC
Precipitaciones de 00:00 a 06:00 en mm
DESCASC
Precipitaciones de 06:00 a 12:00 en mm
DESCASC
Precipitaciones de 12:00 a 18:00 en mm
DESCASC
Precipitaciones de 18:00 a 24:00 en mm
DESCASC
08-12-2019 19.5 (15:10) 8.9 (04:30) 14.2 6.94 (23:50) 4.17 (23:50) 0 0 0 0 0
07-12-2019 18.7 (16:40) 10 (05:30) 14.4 4.17 (12:50) 2.22 (06:50) 0 0 0 0 0
06-12-2019 17.9 (14:10) 11.8 (23:10) 14.8 10 (11:30) 5 (14:40) 0 0 0 0 0
05-12-2019 18.6 (12:40) 9.3 (00:00) 14 7.22 (16:00) 5 (15:30) 0 0 0 0 0
04-12-2019 17.4 (13:10) 10.4 (00:00) 13.9 15.56 (00:50) 7.78 (01:20) 0.2 0.2 0 0 0
03-12-2019 14.6 (02:50) 11.8 (00:00) 13.2 22.22 (14:40) 10.56 (10:10) 11.6 3 5.2 3 0.4
02-12-2019 15.9 (12:00) 12.6 (00:00) 14.3 11.94 (23:40) 6.94 (23:40) 1.6 0 0 1 0.6
01-12-2019 19.9 (14:30) 10.6 (00:00) 15.3 5.28 (19:00) 3.33 (19:20) 0 0 0 0 0
30-11-2019 20.3 (11:30) 11.1 (00:00) 15.7 4.72 (12:00) 2.78 (12:50) 0 0 0 0 0
29-11-2019 20.1 (11:50) 10.6 (00:00) 15.4 6.11 (12:40) 3.33 (12:10) 0 0 0 0 0
28-11-2019 23 (12:20) 11.4 (00:00) 17.2 6.39 (01:00) 3.61 (01:00) 0 0 0 0 0
27-11-2019 25.3 (14:50) 12.2 (00:00) 18.7 15 (08:10) 7.22 (12:20) 0 0 0 0 0
26-11-2019 20.9 (11:40) 12.2 (00:00) 16.5 4.72 (01:20) 2.78 (12:00) 0 0 0 0 0
25-11-2019 23 (13:40) 9.5 (00:00) 16.3 12.22 (15:20) 7.22 (15:20) 0 0 0 0 0
24-11-2019 21.3 (13:40) 9.2 (00:00) 15.2 10 (00:10) 6.11 (00:10) 0 0 0 0 0
23-11-2019 20.7 (14:30) 12.5 (00:00) 16.6 20.83 (03:20) 11.67 (03:20) 0.2 0.2 0 0 0
22-11-2019 17.4 (14:30) 11.2 (00:00) 14.3 12.5 (13:20) 6.39 (14:50) 4.2 0 0.2 0 4
21-11-2019 17.6 (15:30) 9.6 (00:00) 13.6 4.44 (07:10) 2.5 (07:10) 0 0 0 0 0
20-11-2019 17.5 (15:10) 9.8 (00:00) 13.7 5.83 (14:00) 3.33 (13:40) 0 0 0 0 0
19-11-2019 18.6 (12:30) 7.9 (00:00) 13.3 6.94 (13:40) 3.89 (13:30) 0 0 0 0 0
18-11-2019 19.1 (14:40) 9.2 (00:00) 14.2 11.11 (12:00) 5.28 (11:50) 1.8 1.2 0.6 0 0
17-11-2019 18.9 (11:50) 7.3 (00:00) 13.1 12.5 (18:30) 6.67 (18:20) 0 0 0 0 0
16-11-2019 19.4 (14:50) 9.2 (00:00) 14.3 11.11 (12:50) 5.56 (09:10) 0 0 0 0 0
15-11-2019 17.5 (14:10) 9.7 (00:00) 13.6 13.61 (10:00) 7.78 (10:00) 0 0 0 0 0
14-11-2019 19.8 (15:00) 13.4 (00:00) 16.6 18.33 (13:40) 10.56 (13:40) 0 0 0 0 0
13-11-2019 25.3 (14:20) 15.8 (00:00) 20.5 19.17 (11:30) 10.28 (11:30) 0 0 0 0 0
12-11-2019 22.5 (14:30) 12.5 (00:00) 17.5 13.06 (11:40) 6.67 (11:40) 0 0 0 0 0
11-11-2019 19.5 (15:00) 11.9 (07:10) 15.7 20 (01:10) 10 (01:10) 0 0 0 0 0

Gráficas

Temp. máximas Temp. mínimas Temp. medias Precipitaciones Rachas de viento máximas Velocidades máximas media en intervalos de 10 minutos

Datos horarios

Fecha y hora oficial Temperatura (ºC) Velocidad del viento (km/h) Dirección del viento Racha (km/h) Dirección de racha Precipitación (mm) Presión (hPa) Tendencia (hPa) Humedad (%)
2019-12-10 23:00:00 9.4 0 Calma 5 Nordeste 0 1019.8 -0.9 65
2019-12-10 22:00:00 10.1 4 Noroeste 6 Noroeste 0 1020.1 -0.2 64
2019-12-10 21:00:00 11.6 3 Norte 10 Norte 0 1020.4 0.3 57
2019-12-10 20:00:00 12.4 5 Noroeste 13 Nordeste 0 1020.7 0.6 64
2019-12-10 19:00:00 14.2 8 Nordeste 11 Nordeste 0 1020.3 0.1 62
2019-12-10 18:00:00 15.9 2 Nordeste 6 Sudeste 0 1020.1 -0.2 59
2019-12-10 17:00:00 19.2 2 Sudoeste 8 Oeste 0 1020.1 -0.7 47
2019-12-10 16:00:00 19.3 3 Sudoeste 16 Sur 0 1020.2 -1.5 45
2019-12-10 15:00:00 20.4 7 Sur 15 Sur 0 1020.3 -1.8 32
2019-12-10 14:00:00 20.6 5 Sur 14 Sur 0 1020.8 -1.9 26
2019-12-10 13:00:00 20.1 6 Sur 15 Sudeste 0 1021.7 -0.8 25
2019-12-10 12:00:00 18.9 4 Este 14 Sudeste 0 1022.1 0.1 25
2019-12-10 11:00:00 18.9 3 Sudoeste 12 Sudeste 0 1022.7 0.7 35
2019-12-10 10:00:00 16.8 9 Sudeste 16 Sudeste 0 1022.5 0.3 46
2019-12-10 09:00:00 13.8 4 Este 20 Noroeste 0 1022 -0.3 32
2019-12-10 08:00:00 10.9 7 Noroeste 14 Noroeste 0 1022 -0.4 40
2019-12-10 07:00:00 10.6 8 Noroeste 13 Noroeste 0 1022.2 -0.2 44
2019-12-10 06:00:00 10.9 4 Nordeste 11 Nordeste 0 1022.3 -0.5 45
2019-12-10 05:00:00 11.7 3 Oeste 16 Norte 0 1022.4 -0.5 44
2019-12-10 04:00:00 14.1 9 Norte 21 Noroeste 0 1022.4 -0.8 37
2019-12-10 03:00:00 15 7 Noroeste 19 Norte 0 1022.8 -0.4 34
2019-12-10 02:00:00 15.9 6 Norte 22 Norte 0 1022.9 -0.2 29
2019-12-10 01:00:00 13.3 7 Norte 13 Noroeste 0 1023.2 0.4 43
2019-12-10 00:00:00 13 6 Nordeste 11 Nordeste 0 1023.2 0.8 64
2019-12-09 23:00:00 14 2 Oeste 8 Sur 0 1023.1 1.2 72
2019-12-09 22:00:00 13.5 2 Sudoeste 10 Sudeste 0 1022.8 1.3 56
2019-12-09 21:00:00 13.6 4 Noroeste 10 Este 0 1022.4 1.1 59
2019-12-09 20:00:00 14 3 Oeste 9 Norte 0 1021.9 0.4 64
2019-12-09 19:00:00 15.8 0 Calma 14 Norte 0 1021.5 0.1 61
2019-12-09 18:00:00 16 5 Oeste 9 Noroeste 0 1021.3 -0.3 67
2019-12-09 17:00:00 17.7 4 Noroeste 17 Oeste 0 1021.5 -0.5 61
2019-12-09 16:00:00 19.9 6 Sudoeste 14 Oeste 0 1021.4 -0.8 52
2019-12-09 15:00:00 20.2 4 Oeste 14 Sur 0 1021.6 -1.3 57
2019-12-09 14:00:00 19.6 8 Sur 20 Sudeste 0 1022 -1 46
2019-12-09 13:00:00 20.6 12 Sudeste 18 Sudeste 0 1022.2 -0.4 44
2019-12-09 12:00:00 21.9 5 Nordeste 27 Noroeste 0 1022.9 0.9 30
2019-12-09 11:00:00 20.5 4 Norte 22 Norte 0 1023 1.4 29
2019-12-09 10:00:00 16.7 4 Noroeste 17 Noroeste 0 1022.6 1.6 53
2019-12-09 09:00:00 14.8 6 Sudoeste 17 Oeste 0 1022 2 58
2019-12-09 08:00:00 15.4 12 Noroeste 26 Noroeste 0 1021.6 1.8 55
2019-12-09 07:00:00 13.2 4 Noroeste 24 Noroeste 0 1021 1.1 63
2019-12-09 06:00:00 13.7 9 Noroeste 14 Noroeste 0 1020 -0.1 61
2019-12-09 05:00:00 15.5 3 Noroeste 28 Noroeste 0 1019.8 -0.2 51
2019-12-09 04:00:00 15.1 11 Noroeste 18 Noroeste 0 1019.9 -0.5 54
2019-12-09 03:00:00 15.6 4 Noroeste 14 Oeste 0 1020.1 -0.1 51
2019-12-09 02:00:00 16.3 9 Oeste 21 Oeste 0 1020 0.2 43
2019-12-09 01:00:00 15.7 5 Oeste 23 Noroeste 0 1020.4 0.4 47
2019-12-09 00:00:00 15.8 15 Noroeste 25 Noroeste 0 1020.2 0.2 44
2019-12-08 23:00:00 14.1 4 Oeste 15 Noroeste 0 1019.8 0.1 49
2019-12-08 22:00:00 12.9 4 Oeste 13 Oeste 0 1020 0.7 67
2019-12-08 21:00:00 12.7 2 Norte 7 Noroeste 0 1020 0.9 69
2019-12-08 20:00:00 12.7 0 Calma 8 Nordeste 0 1019.7 0.8 67
2019-12-08 19:00:00 14.5 6 Nordeste 10 Norte 0 1019.3 0.3 66
2019-12-08 18:00:00 16.3 4 Sudeste 7 Sudeste 0 1019.1 -0.1 72
2019-12-08 17:00:00 18.4 2 Este 9 Oeste 0 1018.9 -0.8 62
2019-12-08 16:00:00 18.9 6 Sudoeste 14 Sudoeste 0 1019 -1.5 61
2019-12-08 15:00:00 19.2 6 Sudoeste 14 Sur 0 1019.2 -2 53
2019-12-08 14:00:00 18.5 8 Sudoeste 15 Sudoeste 0 1019.7 -1.8 53
2019-12-08 13:00:00 18.6 8 Sur 17 Sudoeste 0 1020.5 -0.8 51
2019-12-08 12:00:00 18.6 8 Sur 13 Sudoeste 0 1021.2 0.2 48
2019-12-08 11:00:00 17.8 0 Calma 5 Sur 0 1021.5 0.8 52
2019-12-08 10:00:00 14.9 0 Calma 5 Nordeste 0 1021.3 1.1 66
2019-12-08 09:00:00 10.7 3 Sudeste 9 Norte 0 1021 1 75
2019-12-08 08:00:00 10.2 3 Norte 12 Norte 0 1020.7 0.7 75
2019-12-08 07:00:00 9.8 5 Norte 10 Este 0 1020.2 0 80
2019-12-08 06:00:00 9.2 2 Nordeste 10 Nordeste 0 1020 -0.7 80
2019-12-08 05:00:00 9.7 5 Norte 9 Noroeste 0 1020 -0.7 83
2019-12-08 04:00:00 9.3 2 Norte 7 Norte 0 1020.2 -0.8 81
2019-12-08 03:00:00 9.8 0 Calma 10 Norte 0 1020.7 -0.7 79
2019-12-08 02:00:00 10.1 8 Norte 12 Norte 0 1020.7 -0.8 80
2019-12-08 01:00:00 10.7 5 Noroeste 12 Noroeste 0 1021 -0.3 82
2019-12-08 00:00:00 10.9 6 Noroeste 10 Noroeste 0 1021.4 0.4 83
2019-12-07 23:00:00 11.4 3 Norte 11 Norte 0 1021.5 0.9 81
2019-12-07 22:00:00 11.9 4 Norte 8 Norte 0 1021.3 1.4 81
2019-12-07 21:00:00 11.8 0 Calma 8 Norte 0 1021 1.7 79
2019-12-07 20:00:00 12.3 2 Noroeste 9 Noroeste 0 1020.6 1.8 78
2019-12-07 19:00:00 13.5 5 Norte 9 Norte 0 1019.9 1.4 77
2019-12-07 18:00:00 15.1 2 Oeste 10 Sur 0 1019.3 1.1 69
2019-12-07 17:00:00 17.7 3 Sudeste 7 Sudeste 0 1018.8 0.4 53
2019-12-07 16:00:00 18.3 2 Sur 11 Este 0 1018.5 -0.6 50
2019-12-07 15:00:00 17.2 6 Sudeste 12 Sudeste 0 1018.2 -1.8 56
2019-12-07 14:00:00 17.1 5 Sudeste 9 Sudeste 0 1018.4 -1.8 56
2019-12-07 13:00:00 17.2 6 Sudeste 15 Sudeste 0 1019.1 -0.8 56
2019-12-07 12:00:00 17.4 3 Norte 7 Nordeste 0 1020 0.8 51
2019-12-07 11:00:00 16.9 2 Oeste 6 Oeste 0 1020.2 1.4 55
2019-12-07 10:00:00 16.9 0 Calma 9 Norte 0 1019.9 1.5 55
2019-12-07 09:00:00 11.6 5 Noroeste 10 Norte 0 1019.2 1.1 76
2019-12-07 08:00:00 10.3 0 Calma 11 Norte 0 1018.8 0.8 77
2019-12-07 07:00:00 11.4 7 Norte 12 Nordeste 0 1018.4 0.1 76
2019-12-07 06:00:00 10.3 6 Norte 10 Norte 0 1018.1 -0.6 81
2019-12-07 05:00:00 10.2 2 Nordeste 7 Nordeste 0 1018 -0.8 80
2019-12-07 04:00:00 11.5 4 Norte 10 Norte 0 1018.3 -0.7 77
2019-12-07 03:00:00 11 0 Calma 11 Norte 0 1018.7 -0.6 78
2019-12-07 02:00:00 11.1 6 Norte 9 Norte 0 1018.8 -0.4 80
2019-12-07 01:00:00 11.3 2 Norte 9 Norte 0 1019 -0.3 79
2019-12-07 00:00:00 12.2 5 Norte 10 Norte 0 1019.3 0.2 75
2019-12-06 23:00:00 12.1 4 Norte 9 Nordeste 0 1019.2 0.2 75
2019-12-06 22:00:00 12.9 4 Nordeste 8 Sudeste 0 1019.3 0.8 74
2019-12-06 21:00:00 14 2 Este 22 Nordeste 0 1019.1 1.4 69
2019-12-06 20:00:00 15 8 Nordeste 17 Este 0 1019 1.8 68
2019-12-06 19:00:00 15.3 12 Este 20 Este 0 1018.5 1.8 69
2019-12-06 18:00:00 16 9 Este 24 Este 0 1017.7 1.1 64
2019-12-06 17:00:00 16.6 14 Este 27 Este 0 1017.2 -0.3 58
2019-12-06 16:00:00 17.6 14 Este 33 Nordeste 0 1016.7 -1.5 56
2019-12-06 15:00:00 17.6 18 Nordeste 32 Nordeste 0 1016.6 -2.1 54
2019-12-06 14:00:00 17.8 15 Este 28 Este 0 1017.5 -1.5 53
2019-12-06 13:00:00 16.9 13 Este 29 Nordeste 0 1018.2 -0.6 57
2019-12-06 12:00:00 16.8 15 Nordeste 36 Nordeste 0 1018.7 0.6 57
2019-12-06 11:00:00 15.9 16 Nordeste 31 Nordeste 0 1019 1.5 61
2019-12-06 10:00:00 15.3 15 Nordeste 28 Este 0 1018.8 1.9 63
2019-12-06 09:00:00 14.9 13 Nordeste 26 Nordeste 0 1018.1 1.6 65
2019-12-06 08:00:00 14.5 11 Nordeste 22 Este 0 1017.5 1.3 68
2019-12-06 07:00:00 14.1 10 Nordeste 21 Este 0 1016.9 0.6 70
2019-12-06 06:00:00 14.1 10 Este 21 Este 0 1016.5 0.2 70
2019-12-06 05:00:00 13.6 5 Nordeste 19 Nordeste 0 1016.2 0.1 71
2019-12-06 04:00:00 13.9 9 Este 19 Nordeste 0 1016.3 -0.1 71
2019-12-06 03:00:00 14.2 9 Nordeste 21 Nordeste 0 1016.3 -0.3 70
2019-12-06 02:00:00 14.2 8 Este 21 Este 0 1016.1 -0.4 69
2019-12-06 01:00:00 14.4 9 Nordeste 18 Nordeste 0 1016.4 0.2 71
2019-12-06 00:00:00 14 6 Este 17 Nordeste 0 1016.6 0.7 71
2019-12-05 23:00:00 13.8 5 Este 14 Nordeste 0 1016.5 1.1 73
2019-12-05 22:00:00 14.3 6 Nordeste 16 Nordeste 0 1016.2 1.7 72
2019-12-05 21:00:00 14.5 9 Nordeste 17 Nordeste 0 1015.9 2.2 71
2019-12-05 20:00:00 14.2 7 Nordeste 21 Este 0 1015.4 2.3 67
2019-12-05 19:00:00 15.1 13 Este 25 Este 0 1014.5 2.3 61
2019-12-05 18:00:00 15.5 13 Este 23 Este 0 1013.7 1.6 62
2019-12-05 17:00:00 16.1 12 Este 24 Este 0 1013.1 1.1 64
2019-12-05 16:00:00 17.5 16 Sudeste 26 Este 0 1012.2 -0.5 55
2019-12-05 15:00:00 17.9 11 Este 23 Este 0 1012.1 -0.7 50
2019-12-05 14:00:00 17.9 14 Sudeste 24 Este 0 1012 -0.7 51
2019-12-05 13:00:00 17.5 13 Este 22 Este 0 1012.7 0.9 48
2019-12-05 12:00:00 17.2 8 Este 16 Este 0 1012.8 2.1 46
2019-12-05 11:00:00 16 3 Sudoeste 6 Este 0 1012.7 2.9 51
2019-12-05 10:00:00 12.9 2 Norte 5 Norte 0 1011.8 3 68
2019-12-05 09:00:00 10.6 2 Este 8 Norte 0 1010.7 2.5 75
2019-12-05 08:00:00 9.6 5 Norte 8 Noroeste 0 1009.8 2.2 77
2019-12-05 07:00:00 10.2 2 Norte 9 Nordeste 0 1008.8 1.3 77
2019-12-05 06:00:00 9.9 0 Calma 6 Norte 0 1008.2 1 83
2019-12-05 05:00:00 10.6 3 Este 9 Norte 0 1007.6 0.8 83
2019-12-05 04:00:00 11.1 3 Norte 8 Norte 0 1007.5 0.9 82
2019-12-05 03:00:00 11.6 3 Nordeste 9 Nordeste 0 1007.2 0.8 82
2019-12-05 02:00:00 11.1 5 Norte 8 Nordeste 0 1006.8 0.5 82
2019-12-05 01:00:00 10.3 2 Norte 8 Nordeste 0 1006.6 0.9 81
2019-12-05 00:00:00 10.8 5 Nordeste 8 Nordeste 0 1006.4 0.9 79
2019-12-04 23:00:00 11 0 Calma 8 Norte 0 1006.3 1.5 75
2019-12-04 22:00:00 12.2 4 Norte 9 Norte 0 1005.7 1.6 72
2019-12-04 21:00:00 12.5 3 Norte 9 Norte 0 1005.5 1.9 70
2019-12-04 20:00:00 12.9 2 Noroeste 8 Este 0 1004.8 1.6 71
2019-12-04 19:00:00 13.9 2 Norte 6 Oeste 0 1004.1 1.7 65
2019-12-04 18:00:00 14.4 3 Este 9 Nordeste 0 1003.6 1.5 62
2019-12-04 17:00:00 15.1 5 Este 14 Este 0 1003.2 1.3 59
2019-12-04 16:00:00 16 10 Este 17 Este 0 1002.4 0.6 55
2019-12-04 15:00:00 16.5 5 Noroeste 23 Norte 0 1002.1 -0.3 47
2019-12-04 14:00:00 16.8 9 Norte 28 Norte 0 1001.9 -0.9 47
2019-12-04 13:00:00 17.3 12 Noroeste 35 Noroeste 0 1001.8 -0.7 44
2019-12-04 12:00:00 16.9 16 Noroeste 37 Norte 0 1002.4 0.2 46
2019-12-04 11:00:00 15.6 7 Oeste 26 Noroeste 0 1002.8 1.1 54
2019-12-04 10:00:00 14.7 10 Noroeste 19 Noroeste 0 1002.5 1.7 57
2019-12-04 09:00:00 13.9 8 Noroeste 19 Noroeste 0 1002.2 1.3 60
2019-12-04 08:00:00 14.3 8 Noroeste 33 Norte 0 1001.7 0.2 57
2019-12-04 07:00:00 14.6 18 Norte 42 Norte 0 1000.8 -1.4 54
2019-12-04 06:00:00 14.1 16 Noroeste 38 Noroeste 0 1000.9 -1.6 57
2019-12-04 05:00:00 13.6 16 Noroeste 48 Noroeste 0.2 1001.5 -1.6 61
2019-12-04 04:00:00 13.6 19 Noroeste 52 Noroeste 0 1002.2 -1.7 58
2019-12-04 03:00:00 12.9 23 Norte 48 Norte 0 1002.5 -2.5 59
2019-12-04 02:00:00 12.5 23 Norte 53 Norte 0 1003.1 -2.1 60
2019-12-04 01:00:00 12.1 26 Norte 56 Noroeste 0 1003.9 -1.5 60
2019-12-04 00:00:00 11.9 23 Norte 53 Norte 0 1005 -0.9 60
2019-12-03 23:00:00 11.8 27 Norte 51 Norte 0 1005.2 -0.9 63
2019-12-03 22:00:00 11.8 18 Norte 44 Norte 0 1005.4 -0.8 68
2019-12-03 21:00:00 12.1 14 Norte 40 Norte 0 1005.9 -0.1 69
2019-12-03 20:00:00 12.6 8 Norte 32 Nordeste 0.2 1006.1 0.1 66
2019-12-03 19:00:00 13.4 11 Nordeste 32 Nordeste 0.2 1006.2 0.7 60
2019-12-03 18:00:00 13.1 19 Nordeste 40 Este 0 1006 0.5 63
2019-12-03 17:00:00 12.4 20 Este 59 Nordeste 0 1006 0 71
2019-12-03 16:00:00 13.1 29 Nordeste 58 Este 0 1005.5 -1.5 64
2019-12-03 15:00:00 13.1 29 Este 80 Nordeste 0 1005.5 -2 71
2019-12-03 14:00:00 12.7 22 Nordeste 50 Este 2 1006 -1.6 77
2019-12-03 13:00:00 12.8 22 Este 59 Nordeste 1 1007 0 78
2019-12-03 12:00:00 13.5 31 Nordeste 66 Nordeste 2.8 1007.5 0.4 72
2019-12-03 11:00:00 13.6 32 Nordeste 63 Nordeste 0.2 1007.6 0.3 74
2019-12-03 10:00:00 13.4 35 Nordeste 68 Nordeste 0.4 1007 0 73
2019-12-03 09:00:00 13.5 26 Nordeste 60 Nordeste 0 1007.1 0.5 75
2019-12-03 08:00:00 13.3 28 Nordeste 56 Nordeste 0.8 1007.3 0.2 77
2019-12-03 07:00:00 13 25 Nordeste 63 Nordeste 1 1007 -0.3 75
2019-12-03 06:00:00 13.6 22 Nordeste 48 Nordeste 1.4 1006.6 -1.3 69
2019-12-03 05:00:00 13.2 21 Nordeste 47 Nordeste 1.2 1007.1 -1.3 71
2019-12-03 04:00:00 13.6 19 Este 57 Nordeste 0.4 1007.3 -1.6 72
2019-12-03 03:00:00 14.6 21 Este 42 Nordeste 0 1007.9 -1.3 64
2019-12-03 02:00:00 14.4 23 Nordeste 51 Este 0 1008.4 -1.1 70
2019-12-03 01:00:00 14.2 24 Este 50 Este 0 1008.9 -0.8 74
2019-12-03 00:00:00 14.4 23 Este 43 Nordeste 0.2 1009.2 -0.3 73
2019-12-02 23:00:00 14.1 20 Este 36 Nordeste 0.2 1009.5 0.2 76
2019-12-02 22:00:00 14.2 17 Este 33 Este 0.2 1009.7 0.9 75
2019-12-02 21:00:00 14.3 14 Este 25 Este 0 1009.5 1.1 75
2019-12-02 20:00:00 14.2 12 Este 27 Este 0 1009.3 1.3 75
2019-12-02 19:00:00 14.2 13 Este 27 Nordeste 0 1008.8 0.8 75
2019-12-02 18:00:00 13.9 13 Este 30 Este 0.2 1008.4 0.7 78
2019-12-02 17:00:00 14.3 10 Este 26 Nordeste 0.2 1008 0 76
2019-12-02 16:00:00 14.7 9 Nordeste 22 Nordeste 0 1008 -0.4 74
2019-12-02 15:00:00 15.2 8 Este 17 Este 0 1007.7 -1 76
2019-12-02 14:00:00 14.8 11 Este 21 Este 0.6 1008 -0.7 77
2019-12-02 13:00:00 15.5 11 Este 18 Este 0 1008.4 0.3 69
2019-12-02 12:00:00 15.9 12 Este 19 Este 0 1008.7 1.4 70
2019-12-02 11:00:00 15.3 12 Este 21 Este 0 1008.7 1.8 73
2019-12-02 10:00:00 14.6 10 Este 18 Este 0 1008.1 1.9 74
2019-12-02 09:00:00 14.1 11 Este 17 Este 0 1007.3 1.5 75
2019-12-02 08:00:00 13 2 Este 10 Este 0 1006.9 1.3 78
2019-12-02 07:00:00 13.4 6 Nordeste 13 Nordeste 0 1006.2 0.3 77
2019-12-02 06:00:00 13.9 5 Nordeste 12 Nordeste 0 1005.8 -0.3 76
2019-12-02 05:00:00 13.2 6 Nordeste 8 Nordeste 0 1005.6 -0.2 76
2019-12-02 04:00:00 13 4 Norte 8 Nordeste 0 1005.9 -0.4 76
2019-12-02 03:00:00 13.2 4 Norte 10 Nordeste 0 1006.1 -0.1 75
2019-12-02 02:00:00 13.6 7 Nordeste 11 Nordeste 0 1005.8 -0.2 74
2019-12-02 01:00:00 13.1 2 Norte 11 Norte 0 1006.3 0.3 73
2019-12-02 00:00:00 13.8 2 Nordeste 8 Sudeste 0 1006.2 0.1 73
2019-12-01 23:00:00 13.8 2 Noroeste 10 Este 0 1006 0 71
2019-12-01 22:00:00 13.9 5 Nordeste 9 Norte 0 1006 0.3 70
2019-12-01 21:00:00 13.5 2 Noroeste 8 Norte 0 1006.1 0.5 70
2019-12-01 20:00:00 14.3 6 Norte 18 Este 0 1006 0.2 75
2019-12-01 19:00:00 15.5 10 Este 19 Este 0 1005.7 -0.5 78
2019-12-01 18:00:00 16.9 7 Este 15 Nordeste 0 1005.6 -0.9 66
2019-12-01 17:00:00 18.6 9 Nordeste 17 Nordeste 0 1005.8 -1.4 57
2019-12-01 16:00:00 18.9 8 Sudeste 13 Sudeste 0 1006.2 -1.7 62
2019-12-01 15:00:00 19 4 Sudeste 14 Sur 0 1006.5 -2.3 63
2019-12-01 14:00:00 19.4 8 Sudoeste 19 Sur 0 1007.2 -2 59
2019-12-01 13:00:00 18.9 7 Sur 14 Sur 0 1007.9 -1.4 54
2019-12-01 12:00:00 18.7 8 Sur 13 Sudoeste 0 1008.8 -0.4 58
2019-12-01 11:00:00 18.2 4 Sudoeste 7 Sur 0 1009.2 0 57
2019-12-01 10:00:00 14.9 4 Este 7 Sudeste 0 1009.3 0.4 73
2019-12-01 09:00:00 13.6 0 Calma 10 Norte 0 1009.2 0.1 79
2019-12-01 08:00:00 10.8 0 Calma 11 Norte 0 1009.2 -0.2 82
2019-12-01 07:00:00 11.3 7 Nordeste 12 Nordeste 0 1008.9 -0.8 85
2019-12-01 06:00:00 11 3 Norte 9 Norte 0 1009.1 -0.9 86
2019-12-01 05:00:00 11.9 3 Nordeste 12 Nordeste 0 1009.4 -1 86
2019-12-01 04:00:00 11.8 5 Nordeste 10 Nordeste 0 1009.7 -1.2 86
2019-12-01 03:00:00 12.1 3 Sudeste 12 Nordeste 0 1010 -1.5 83
2019-12-01 02:00:00 11.6 8 Norte 13 Norte 0 1010.4 -1.4 83
2019-12-01 01:00:00 12.7 2 Norte 10 Norte 0 1010.9 -1.3 83
2019-12-01 00:00:00 11.5 2 Oeste 6 Nordeste 0 1011.5 -0.8 82
2019-11-30 23:00:00 12.4 3 Nordeste 5 Nordeste 0 1011.8 -0.7 82
2019-11-30 22:00:00 13.4 2 Norte 9 Norte 0 1012.2 -0.8 80
2019-11-30 21:00:00 14.4 3 Nordeste 10 Nordeste 0 1012.3 -1.1 79
2019-11-30 20:00:00 14.8 6 Nordeste 10 Nordeste 0 1012.5 -1.3 77
2019-11-30 19:00:00 15.3 3 Norte 7 Oeste 0 1013 -1 80
2019-11-30 18:00:00 16.3 4 Oeste 13 Sudoeste 0 1013.4 -1.3 76
2019-11-30 17:00:00 17.9 8 Sudoeste 15 Sur 0 1013.8 -1.7 67
2019-11-30 16:00:00 19.2 8 Sudoeste 15 Sudoeste 0 1014 -2.7 58
2019-11-30 15:00:00 19.6 9 Sur 14 Sur 0 1014.7 -3.1 58
2019-11-30 14:00:00 20.3 5 Sur 14 Sur 0 1015.5 -2.8 55
2019-11-30 13:00:00 19.8 9 Sudoeste 14 Sudoeste 0 1016.7 -1.7 56
2019-11-30 12:00:00 19.7 9 Sur 17 Sudoeste 0 1017.8 -0.3 54
2019-11-30 11:00:00 19.3 5 Sudoeste 9 Sur 0 1018.3 0.7 56
2019-11-30 10:00:00 18.6 0 Calma 4 Sur 0 1018.4 1 61
2019-11-30 09:00:00 13.6 0 Calma 7 Nordeste 0 1018.1 1 76
2019-11-30 08:00:00 11.3 0 Calma 7 Nordeste 0 1017.6 0.3 78
2019-11-30 07:00:00 11.5 3 Nordeste 8 Norte 0 1017.4 0 77
2019-11-30 06:00:00 12 2 Nordeste 10 Nordeste 0 1017.1 -0.5 74
2019-11-30 05:00:00 11.6 0 Calma 6 Nordeste 0 1017.3 -0.3 77
2019-11-30 04:00:00 12.4 2 Nordeste 10 Nordeste 0 1017.4 -0.2 75
2019-11-30 03:00:00 13.2 6 Nordeste 10 Nordeste 0 1017.6 -0.2 75
2019-11-30 02:00:00 12.2 0 Calma 10 Nordeste 0 1017.6 -0.2 76
2019-11-30 01:00:00 12.4 4 Nordeste 8 Nordeste 0 1017.6 -0.1 79
2019-11-30 00:00:00 12.9 2 Nordeste 7 Nordeste 0 1017.8 0.1 78
2019-11-29 23:00:00 13 3 Noroeste 6 Nordeste 0 1017.8 0.3 78
2019-11-29 22:00:00 14.4 5 Nordeste 10 Nordeste 0 1017.7 0.2 77
2019-11-29 21:00:00 14.1 4 Norte 9 Norte 0 1017.7 0.8 80
2019-11-29 20:00:00 15.1 3 Nordeste 6 Norte 0 1017.5 1.1 80
2019-11-29 19:00:00 15.9 3 Norte 5 Sur 0 1017.5 1.4 78
2019-11-29 18:00:00 17 3 Sudoeste 8 Oeste 0 1016.9 0.8 74
2019-11-29 17:00:00 18.4 3 Sur 12 Sur 0 1016.4 0 68
2019-11-29 16:00:00 19.2 6 Sur 13 Sudoeste 0 1016.1 -0.5 64
2019-11-29 15:00:00 19.4 6 Sudoeste 19 Sudoeste 0 1016.1 -1.2 64
2019-11-29 14:00:00 19.6 9 Sudoeste 20 Sur 0 1016.4 -1 62
2019-11-29 13:00:00 20 8 Sudoeste 22 Sudoeste 0 1016.6 -0.7 54
2019-11-29 12:00:00 20 9 Sur 17 Sur 0 1017.3 0.7 46
2019-11-29 11:00:00 18.7 6 Sur 10 Sur 0 1017.4 1.5 49
2019-11-29 10:00:00 16.7 3 Norte 7 Este 0 1017.3 1.8 58
2019-11-29 09:00:00 13.7 2 Este 10 Norte 0 1016.6 1.5 65
2019-11-29 08:00:00 12 8 Nordeste 13 Nordeste 0 1015.9 0.9 72
2019-11-29 07:00:00 10.7 3 Nordeste 12 Norte 0 1015.5 0.4 71
2019-11-29 06:00:00 11.5 8 Nordeste 12 Norte 0 1015.1 0.2 74
2019-11-29 05:00:00 11.8 5 Norte 14 Norte 0 1015 0.2 71
2019-11-29 04:00:00 11.4 6 Norte 11 Norte 0 1015.1 0 78
2019-11-29 03:00:00 12.4 5 Nordeste 14 Norte 0 1014.9 -0.2 78
2019-11-29 02:00:00 11.4 4 Norte 10 Norte 0 1014.8 0 78
2019-11-29 01:00:00 12.7 4 Nordeste 13 Norte 0 1015.1 0.7 71
2019-11-29 00:00:00 12.2 4 Norte 13 Nordeste 0 1015.1 1 76
2019-11-28 23:00:00 12 4 Este 10 Norte 0 1014.8 1.4 76
2019-11-28 22:00:00 12.5 4 Nordeste 9 Norte 0 1014.4 0.9 75
2019-11-28 21:00:00 13.1 4 Noroeste 9 Norte 0 1014.1 0.9 73
2019-11-28 20:00:00 14.3 4 Nordeste 9 Nordeste 0 1013.4 0.2 77
2019-11-28 19:00:00 15.3 4 Norte 7 Sudoeste 0 1013.5 0.2 76
2019-11-28 18:00:00 17 3 Sur 10 Oeste 0 1013.2 -0.1 68
2019-11-28 17:00:00 18.5 3 Sudoeste 14 Sudoeste 0 1013.2 -0.1 63
2019-11-28 16:00:00 18.8 6 Sudoeste 15 Sur 0 1013.3 -0.7 63
2019-11-28 15:00:00 19.3 7 Sur 20 Sur 0 1013.3 -1.7 56
2019-11-28 14:00:00 20.7 8 Sudeste 17 Sudeste 0 1013.3 -1.7 42
2019-11-28 13:00:00 21.3 4 Sur 11 Sudoeste 0 1014 -1.1 37
2019-11-28 12:00:00 21.1 6 Sudeste 12 Sur 0.6 1015 0.5 35
2019-11-28 11:00:00 19.9 6 Sur 13 Sudeste 0 1015 1.4 46
2019-11-28 10:00:00 19.7 4 Sudeste 11 Este 0 1015.1 2.3 48
2019-11-28 09:00:00 14.4 4 Norte 8 Norte 0 1014.5 2.3 53
2019-11-28 08:00:00 11.6 3 Nordeste 12 Norte 0 1013.6 1.4 62
2019-11-28 07:00:00 11.9 4 Noroeste 14 Noroeste 0 1012.8 0.7 61
2019-11-28 06:00:00 12.3 3 Norte 13 Noroeste 0 1012.2 0.1 61
2019-11-28 05:00:00 12.8 3 Oeste 13 Norte 0 1012.2 0.6 58
2019-11-28 04:00:00 14.8 7 Norte 15 Noroeste 0 1012.1 0.2 50
2019-11-28 03:00:00 14.5 8 Noroeste 16 Norte 0 1012.1 0 50
2019-11-28 02:00:00 14 7 Noroeste 19 Noroeste 0 1011.6 0 53
2019-11-28 01:00:00 14.7 13 Noroeste 23 Noroeste 0 1011.9 1.1 51
2019-11-28 00:00:00 15.5 6 Norte 25 Noroeste 0 1012.1 2 49
2019-11-27 23:00:00 16.4 12 Noroeste 25 Noroeste 0 1011.6 1.8 48
2019-11-27 22:00:00 17.2 13 Noroeste 39 Noroeste 0 1010.8 1.5 44
2019-11-27 21:00:00 18.6 20 Noroeste 39 Noroeste 0 1010.1 1.4 40
2019-11-27 20:00:00 19.1 12 Noroeste 30 Noroeste 0 1009.8 1.8 37
2019-11-27 19:00:00 19.9 11 Noroeste 30 Noroeste 0 1009.3 1.7 33
2019-11-27 18:00:00 20.3 3 Noroeste 14 Noroeste 0 1008.7 1.3 40
2019-11-27 17:00:00 21.8 4 Nordeste 17 Sudoeste 0 1008 0 48
2019-11-27 16:00:00 22.7 7 Sur 22 Oeste 0 1007.6 -0.9 47
2019-11-27 15:00:00 24.6 17 Oeste 37 Noroeste 0 1007.4 -1.9 36
2019-11-27 14:00:00 24.8 18 Noroeste 43 Noroeste 0 1008 -1.7 25
2019-11-27 06:00:00 15.9 2 Sudoeste 12 Sudoeste 0 1007.1 -0.3 68
2019-11-27 05:00:00 14.7 4 Oeste 14 Oeste 0 1006.9 -0.4 67
2019-11-27 04:00:00 16.3 3 Noroeste 29 Oeste 0 1007.2 -0.4 59
2019-11-27 03:00:00 13.7 9 Oeste 15 Oeste 0 1007.4 -0.9 72
2019-11-27 02:00:00 12.5 7 Norte 9 Noroeste 0 1007.3 -1.2 82
2019-11-27 01:00:00 12.2 4 Oeste 10 Nordeste 0 1007.6 -1 84
2019-11-27 00:00:00 12.3 0 Calma 7 Nordeste 0 1008.3 -0.4 82
2019-11-26 23:00:00 12.8 2 Nordeste 9 Norte 0 1008.5 -0.4 81
2019-11-26 22:00:00 13.2 0 Calma 6 Nordeste 0 1008.6 -0.5 82
2019-11-26 21:00:00 14.4 4 Norte 8 Nordeste 0 1008.7 -0.3 83
2019-11-26 20:00:00 15 4 Norte 6 Sudeste 0 1008.9 0.1 82
2019-11-26 19:00:00 15.8 3 Sur 5 Norte 0 1009.1 -0.3 80
2019-11-26 18:00:00 16.9 0 Calma 6 Norte 0 1009 -0.5 76
2019-11-26 17:00:00 17.4 2 Noroeste 14 Oeste 0 1008.8 -1.2 74
2019-11-26 16:00:00 18.6 7 Sudoeste 14 Sur 0 1009.4 -1.3 70
2019-11-26 15:00:00 20.1 5 Sudoeste 14 Sudoeste 0 1009.5 -1.9 65
2019-11-26 14:00:00 20.2 2 Este 17 Sur 0 1010 -2 53
2019-11-26 13:00:00 19.8 8 Sur 17 Sur 0 1010.7 -1.2 62
2019-11-26 12:00:00 19.2 10 Sudeste 17 Sur 0 1011.4 -0.3 69
2019-11-26 11:00:00 19.2 5 Sur 11 Sudeste 0 1012 0.6 64
2019-11-26 10:00:00 17.9 0 Calma 8 Nordeste 0 1011.9 0.9 67
2019-11-26 09:00:00 13.6 3 Nordeste 8 Nordeste 0 1011.7 0.6 78
2019-11-26 08:00:00 13 5 Norte 10 Norte 0 1011.4 0.1 79
2019-11-26 07:00:00 12.7 4 Este 13 Noroeste 0 1011 -0.6 78
2019-11-26 06:00:00 12.9 3 Sudeste 13 Nordeste 0 1011.1 -0.5 77
2019-11-26 05:00:00 12.2 3 Nordeste 10 Nordeste 0 1011.3 -0.6 77
2019-11-26 04:00:00 13.8 5 Norte 12 Noroeste 0 1011.6 -0.8 73
2019-11-26 03:00:00 13.9 8 Norte 13 Nordeste 0 1011.6 -0.9 74
2019-11-26 02:00:00 13.8 5 Noroeste 17 Norte 0 1011.9 -0.5 76
2019-11-26 01:00:00 14.3 6 Norte 14 Nordeste 0 1012.4 0.3 72
2019-11-26 00:00:00 15.1 4 Noroeste 10 Sudeste 0 1012.5 0.5 70
2019-11-25 23:00:00 15.7 5 Norte 12 Nordeste 0 1012.4 0.8 65
2019-11-25 22:00:00 15.6 5 Norte 10 Nordeste 0 1012.1 1.1 67
2019-11-25 21:00:00 16.7 4 Norte 15 Nordeste 0 1012 1.8 64
2019-11-25 20:00:00 17.4 4 Nordeste 9 Nordeste 0 1011.6 1.8 60
2019-11-25 19:00:00 19.7 5 Este 28 Noroeste 0 1011 1.4 52
2019-11-25 18:00:00 21.3 19 Noroeste 34 Oeste 0 1010.2 0.4 46
2019-11-25 17:00:00 22.5 20 Noroeste 40 Noroeste 0 1009.8 -0.7 44
2019-11-25 16:00:00 22.3 17 Noroeste 44 Noroeste 0 1009.6 -1.2 44
2019-11-25 15:00:00 20.9 5 Sudoeste 17 Sur 0 1009.8 -2.1 48
2019-11-25 14:00:00 20 11 Sur 40 Oeste 0 1010.5 -1.7 44
2019-11-25 13:00:00 22.5 21 Oeste 40 Oeste 0 1010.8 -1.4 43
2019-11-25 12:00:00 18.3 11 Sur 32 Sur 0 1011.9 -0.5 55
2019-11-25 11:00:00 20.5 9 Oeste 28 Oeste 0 1012.2 -0.1 43
2019-11-25 10:00:00 17.7 8 Oeste 18 Noroeste 0 1012.2 0.3 48
2019-11-25 09:00:00 12.4 8 Noroeste 15 Noroeste 0 1012.4 1.1 62
2019-11-25 08:00:00 11 7 Nordeste 11 Nordeste 0 1012.3 0.9 60
2019-11-25 07:00:00 10.1 3 Norte 10 Norte 0 1011.9 0.3 61
2019-11-25 06:00:00 10.7 5 Norte 11 Nordeste 0 1011.3 -0.1 57
2019-11-25 05:00:00 9.7 5 Noroeste 17 Noroeste 0 1011.4 -0.1 63
2019-11-25 04:00:00 10.4 10 Noroeste 17 Noroeste 0 1011.6 -0.6 60
2019-11-25 03:00:00 10 4 Oeste 11 Noroeste 0 1011.4 -0.6 58
2019-11-25 02:00:00 10.7 5 Noroeste 13 Noroeste 0 1011.5 -0.4 53
2019-11-25 01:00:00 12.1 5 Noroeste 14 Oeste 0 1012.2 0.3 50
2019-11-25 00:00:00 12 9 Noroeste 15 Oeste 0 1012 0.2 46
2019-11-24 23:00:00 12.4 2 Sur 22 Norte 0 1011.9 0.6 45
2019-11-24 22:00:00 13.3 9 Noroeste 17 Norte 0 1011.9 1 41
2019-11-24 21:00:00 14.1 9 Norte 19 Noroeste 0 1011.8 1.4 38
2019-11-24 20:00:00 13.4 8 Norte 19 Noroeste 0 1011.3 1 43
2019-11-24 19:00:00 15.1 10 Noroeste 20 Noroeste 0 1010.9 0.8 36
2019-11-24 18:00:00 15.9 5 Nordeste 18 Sudeste 0 1010.4 0.4 55
2019-11-24 17:00:00 17.6 13 Sudeste 24 Sudoeste 0 1010.3 0 54
2019-11-24 16:00:00 19 10 Sudoeste 33 Sudoeste 0 1010.1 -0.5 40
2019-11-24 15:00:00 18.7 12 Sudoeste 27 Sudoeste 0 1010 -1.5 40
2019-11-24 14:00:00 20.4 12 Sudoeste 30 Sudoeste 0 1010.3 -1.5 36
2019-11-24 13:00:00 20.2 14 Oeste 24 Oeste 0 1010.6 -0.9 25
2019-11-24 12:00:00 19.2 15 Oeste 28 Oeste 0 1011.5 0.6 28
2019-11-24 11:00:00 18 15 Oeste 30 Oeste 0 1011.8 1.5 32
2019-11-24 10:00:00 17.2 9 Oeste 19 Oeste 0 1011.5 2.1 36
2019-11-24 09:00:00 13.4 6 Oeste 16 Norte 0 1010.9 1.9 50
2019-11-24 08:00:00 9.6 8 Noroeste 17 Oeste 0 1010.3 1.7 59
2019-11-24 07:00:00 9.6 0 Calma 18 Oeste 0 1009.4 1 58
2019-11-24 06:00:00 10.8 6 Noroeste 24 Oeste 0 1009 1.4 52
2019-11-24 05:00:00 11.9 13 Oeste 19 Sudoeste 0 1008.6 1.1 49
2019-11-24 04:00:00 12.1 4 Norte 33 Oeste 0 1008.4 0.5 48
2019-11-24 03:00:00 11.2 10 Noroeste 24 Oeste 0 1007.6 0 53
2019-11-24 02:00:00 12.1 7 Oeste 22 Noroeste 0 1007.5 0.1 48
2019-11-24 01:00:00 12.8 8 Norte 36 Noroeste 0 1007.9 1.2 46
2019-11-24 00:00:00 13.4 16 Noroeste 36 Noroeste 0 1007.6 1.8 45
2019-11-23 23:00:00 13 12 Oeste 20 Oeste 0 1007.4 1.9 46
2019-11-23 22:00:00 12.7 4 Oeste 24 Oeste 0 1006.7 2.8 47
2019-11-23 21:00:00 12.5 11 Oeste 22 Oeste 0 1005.8 3.1 48
2019-11-23 20:00:00 14.3 3 Sudeste 36 Noroeste 0 1005.5 4 37
2019-11-23 19:00:00 16.2 22 Noroeste 46 Noroeste 0 1003.9 3.7 29
2019-11-23 18:00:00 16.5 14 Oeste 31 Noroeste 0 1002.7 3.7 31
2019-11-23 17:00:00 18.2 18 Noroeste 47 Noroeste 0 1001.5 3 25
2019-11-23 16:00:00 19.4 18 Noroeste 46 Oeste 0 1000.2 2 27
2019-11-23 15:00:00 20.4 25 Oeste 44 Oeste 0 999 0.9 27
2019-11-23 14:00:00 20.3 22 Oeste 50 Oeste 0 998.5 1 28
2019-11-23 13:00:00 20.2 29 Oeste 53 Oeste 0 998.2 1.9 29
2019-11-23 12:00:00 19.6 24 Oeste 48 Oeste 0 998.1 3.2 31
2019-11-23 11:00:00 18.3 27 Oeste 50 Oeste 0 997.5 3.2 34
2019-11-23 10:00:00 17.3 28 Oeste 50 Oeste 0 996.3 1.7 38
2019-11-23 09:00:00 15.7 26 Oeste 52 Oeste 0 994.9 1.5 45
2019-11-23 08:00:00 13.8 21 Oeste 48 Oeste 0 994.3 2.2 50
2019-11-23 07:00:00 14.8 25 Oeste 51 Oeste 0 994.6 1.5 47
2019-11-23 06:00:00 16.1 27 Oeste 71 Noroeste 0 993.4 0.9 39
2019-11-23 05:00:00 16.2 23 Oeste 65 Noroeste 0 992.1 -0.3 38
2019-11-23 04:00:00 16.5 19 Noroeste 75 Noroeste 0 993.1 0.5 40
2019-11-23 03:00:00 16.7 35 Oeste 75 Noroeste 0 992.5 -0.9 40
2019-11-23 02:00:00 16.7 31 Oeste 71 Noroeste 0 992.4 -1.3 42
2019-11-23 01:00:00 16.3 32 Noroeste 59 Noroeste 0.2 992.6 -1.8 46
2019-11-23 00:00:00 14 10 Noroeste 19 Noroeste 0 993.4 -1.6 85
2019-11-22 23:00:00 13.8 6 Norte 12 Norte 0 993.7 -0.6 86
2019-11-22 22:00:00 15.2 2 Sudeste 24 Sudoeste 1.2 994.4 -0.9 85
2019-11-22 21:00:00 15.6 9 Sudoeste 36 Sudoeste 1.2 995 -1.2 84
2019-11-22 20:00:00 15.5 9 Sudoeste 39 Sudoeste 1.6 994.3 -2.5 83
2019-11-22 19:00:00 15.8 13 Sudoeste 34 Sudoeste 0 995.3 -2.2 80
2019-11-22 18:00:00 15.4 12 Sudoeste 36 Sudoeste 0 996.2 -2.4 81
2019-11-22 17:00:00 15.3 12 Sudoeste 33 Sudoeste 0 996.8 -2.5 79
2019-11-22 16:00:00 15.5 19 Sudoeste 42 Sudoeste 0 997.5 -3.1 75
2019-11-22 15:00:00 16.6 17 Sudoeste 44 Sudoeste 0 998.6 -2.9 68
2019-11-22 14:00:00 16.7 16 Sudoeste 45 Sudoeste 0 999.3 -3.5 75
2019-11-22 13:00:00 16.5 14 Sudoeste 33 Sudoeste 0 1000.6 -2.5 75
2019-11-22 12:00:00 15.6 4 Sudeste 10 Norte 0 1001.5 -1.7 78
2019-11-22 11:00:00 14.6 3 Este 5 Este 0.2 1002.8 0 80
2019-11-22 10:00:00 13.8 0 Calma 6 Noroeste 0 1003.1 0.2 75
2019-11-22 09:00:00 13.2 4 Norte 9 Nordeste 0 1003.2 0.1 75
2019-11-22 08:00:00 12 5 Nordeste 6 Nordeste 0 1002.8 -0.6 80
2019-11-22 07:00:00 11.7 2 Noroeste 10 Nordeste 0 1002.9 -0.9 79
2019-11-22 06:00:00 11.4 5 Norte 10 Norte 0 1003.1 -0.8 81
2019-11-22 05:00:00 11.9 4 Norte 10 Nordeste 0 1003.4 -0.6 78
2019-11-22 04:00:00 11.3 2 Norte 10 Nordeste 0 1003.8 -0.7 80
2019-11-22 03:00:00 11.4 0 Calma 8 Nordeste 0 1003.9 -1 80
2019-11-22 02:00:00 12.1 2 Nordeste 9 Norte 0 1004 -1.3 78
2019-11-22 01:00:00 13 2 Norte 8 Norte 0 1004.5 -0.8 77
2019-11-22 00:00:00 13.1 0 Calma 5 Noroeste 0 1004.9 -0.5 76
2019-11-21 23:00:00 13.7 2 Norte 8 Nordeste 0 1005.3 0 73
2019-11-21 22:00:00 14.2 4 Norte 8 Nordeste 0 1005.3 0.3 71
2019-11-21 21:00:00 14.3 4 Norte 9 Nordeste 0 1005.4 0.4 71
2019-11-21 20:00:00 14.7 5 Norte 8 Nordeste 0 1005.3 0 65
2019-11-21 19:00:00 15.1 4 Nordeste 9 Nordeste 0 1005 -0.4 58
2019-11-21 18:00:00 15.8 5 Nordeste 11 Nordeste 0 1005 -0.3 55
2019-11-21 17:00:00 16.5 3 Este 8 Sudoeste 0 1005.3 -0.5 55
2019-11-21 16:00:00 17.4 5 Sudoeste 9 Sudoeste 0 1005.4 -1.1 48
2019-11-21 15:00:00 16.8 5 Sur 10 Sur 0 1005.3 -1.8 49
2019-11-21 14:00:00 17.2 3 Sudoeste 13 Sudoeste 0 1005.8 -1.7 52
2019-11-21 13:00:00 16.5 6 Sudoeste 13 Sudoeste 0 1006.5 -1.1 52
2019-11-21 12:00:00 16.5 2 Sudoeste 8 Oeste 0 1007.1 -0.1 47
2019-11-21 11:00:00 15.9 3 Noroeste 7 Norte 0 1007.5 1 50
2019-11-21 10:00:00 13.2 2 Norte 7 Norte 0 1007.6 1.4 60
2019-11-21 09:00:00 12.5 3 Norte 15 Sudoeste 0 1007.2 1.2 59
2019-11-21 08:00:00 11.5 6 Noroeste 16 Noroeste 0 1006.5 0.4 63
2019-11-21 07:00:00 10.8 6 Noroeste 13 Norte 0 1006.2 0 66
2019-11-21 06:00:00 9.6 2 Oeste 11 Norte 0 1006 -0.2 73
2019-11-21 05:00:00 10.3 5 Nordeste 10 Norte 0 1006.1 -0.2 72
2019-11-21 04:00:00 10.7 6 Norte 13 Oeste 0 1006.2 -0.4 71
2019-11-21 03:00:00 11.2 7 Sudoeste 14 Sudoeste 0 1006.2 -0.3 69
2019-11-21 02:00:00 10.2 4 Norte 6 Noroeste 0 1006.3 -0.5 76
2019-11-21 01:00:00 11.3 4 Norte 10 Nordeste 0 1006.6 -0.2 73
2019-11-21 00:00:00 12.4 6 Nordeste 13 Norte 0 1006.5 -0.2 69
2019-11-20 23:00:00 12.8 2 Este 14 Nordeste 0 1006.8 0.4 67
2019-11-20 22:00:00 13 4 Norte 13 Nordeste 0 1006.8 0.4 65
2019-11-20 21:00:00 13.1 4 Este 10 Sudeste 0 1006.7 0.5 65
2019-11-20 20:00:00 14 5 Noroeste 10 Norte 0 1006.4 0 66
2019-11-20 19:00:00 15.2 3 Noroeste 11 Nordeste 0 1006.4 -0.1 63
2019-11-20 18:00:00 15.7 7 Nordeste 14 Nordeste 0 1006.2 -0.5 60
2019-11-20 17:00:00 15.9 3 Noroeste 11 Nordeste 0 1006.4 -0.9 53
2019-11-20 16:00:00 16.2 6 Sudeste 18 Sudeste 0 1006.5 -1.8 62
2019-11-20 15:00:00 16.9 7 Sur 18 Sur 0 1006.7 -2.4 58
2019-11-20 14:00:00 17 9 Sur 21 Sur 0 1007.3 -2.3 50
2019-11-20 13:00:00 17.1 7 Sur 17 Sur 0 1008.3 -1.4 42
2019-11-20 12:00:00 17.1 8 Sur 14 Sur 0 1009.1 -0.5 41
2019-11-20 11:00:00 16.9 6 Sur 12 Sur 0 1009.6 0.3 52
2019-11-20 10:00:00 16.6 2 Sur 5 Sudoeste 0 1009.7 0.3 56
2019-11-20 09:00:00 12.4 2 Noroeste 8 Este 0 1009.6 0.1 73
2019-11-20 08:00:00 10.2 2 Noroeste 6 Norte 0 1009.3 -0.3 78
2019-11-20 07:00:00 10.5 0 Calma 6 Norte 0 1009.4 -0.6 78
2019-11-20 06:00:00 10.8 3 Norte 8 Norte 0 1009.5 -0.9 77
2019-11-20 05:00:00 11.1 3 Norte 8 Norte 0 1009.6 -1.3 76
2019-11-20 04:00:00 11.6 5 Norte 8 Noroeste 0 1010 -1.5 76
2019-11-20 03:00:00 11.1 4 Norte 8 Noroeste 0 1010.4 -1.5 77
2019-11-20 02:00:00 10.9 4 Norte 7 Norte 0 1010.9 -1.1 77
2019-11-20 01:00:00 9.9 0 Calma 6 Norte 0 1011.5 -0.7 77
2019-11-20 00:00:00 10 3 Norte 6 Norte 0 1011.9 -0.3 76
2019-11-19 23:00:00 10 2 Oeste 6 Nordeste 0 1012 -0.3 75
2019-11-19 22:00:00 11.1 3 Norte 9 Nordeste 0 1012.2 0.1 72
2019-11-19 21:00:00 11.8 3 Norte 10 Nordeste 0 1012.2 0.3 70
2019-11-19 20:00:00 13.2 5 Nordeste 9 Nordeste 0 1012.3 0.5 64
2019-11-19 19:00:00 13.9 5 Norte 7 Norte 0 1012.1 0 61
2019-11-19 18:00:00 15.2 4 Sudoeste 15 Sur 0 1011.9 -0.3 57
2019-11-19 17:00:00 15.8 4 Sur 18 Sur 0 1011.8 -1.1 48
2019-11-19 16:00:00 16.4 10 Sur 21 Sur 0 1012.1 -1.2 50
2019-11-19 15:00:00 17.3 13 Sur 24 Sudoeste 0 1012.2 -2.1 48
2019-11-19 14:00:00 17.6 14 Sur 25 Sudoeste 0 1012.9 -1.9 39
2019-11-19 13:00:00 18 12 Sudoeste 24 Oeste 0 1013.3 -1.7 31
2019-11-19 12:00:00 17.7 12 Oeste 22 Oeste 0 1014.3 -0.5 29
2019-11-19 11:00:00 16.1 8 Sur 14 Sur 0 1014.8 0.7 34
2019-11-19 10:00:00 14 7 Noroeste 21 Noroeste 0 1015 1.3 39
2019-11-19 09:00:00 12 13 Noroeste 23 Oeste 0 1014.8 1.4 43
2019-11-19 08:00:00 8.7 6 Oeste 11 Sudoeste 0 1014.1 0.7 52
2019-11-19 07:00:00 8.4 6 Noroeste 11 Noroeste 0 1013.7 -0.1 55
2019-11-19 06:00:00 8.4 4 Norte 10 Nordeste 0 1013.4 -0.3 54
2019-11-19 05:00:00 8.6 5 Nordeste 9 Norte 0 1013.4 -0.2 53
2019-11-19 04:00:00 9.5 5 Norte 17 Norte 0 1013.8 0.2 49
2019-11-19 03:00:00 10.4 11 Noroeste 18 Norte 0 1013.7 -0.3 45
2019-11-19 02:00:00 9.8 4 Norte 13 Nordeste 0 1013.6 0 48
2019-11-19 01:00:00 10.1 4 Norte 15 Norte 0 1013.6 0.5 47
2019-11-19 00:00:00 10.2 9 Norte 20 Noroeste 0 1014 1.4 47
2019-11-18 23:00:00 10.6 5 Nordeste 13 Norte 0 1013.6 1.5 47
2019-11-18 22:00:00 11.3 7 Norte 13 Nordeste 0 1013.1 2.3 44
2019-11-18 21:00:00 12.1 6 Norte 13 Norte 0 1012.6 2.6 41
2019-11-18 20:00:00 15 8 Nordeste 36 Norte 0 1012.1 3 29
2019-11-18 19:00:00 15.5 15 Norte 33 Norte 0 1010.8 2.5 30
2019-11-18 18:00:00 16.5 13 Norte 31 Noroeste 0 1010 2.1 29
2019-11-18 17:00:00 18 14 Norte 37 Norte 0 1009.1 1.4 27
2019-11-18 16:00:00 18.8 10 Norte 35 Norte 0 1008.3 0.7 25
2019-11-18 15:00:00 18.8 16 Norte 36 Norte 0 1007.9 0.1 24
2019-11-18 14:00:00 18.5 16 Norte 33 Nordeste 0 1007.7 0.2 26
2019-11-18 13:00:00 18.1 12 Nordeste 35 Norte 0 1007.6 0.9 30
2019-11-18 12:00:00 17.1 18 Norte 40 Norte 0 1007.8 1.8 33
2019-11-18 11:00:00 16.5 12 Noroeste 29 Noroeste 0 1007.5 2.4 35
2019-11-18 10:00:00 14.8 14 Noroeste 29 Noroeste 0 1006.7 2.4 47
2019-11-18 09:00:00 11.5 4 Norte 13 Norte 0 1006 1.6 66
2019-11-18 08:00:00 11 5 Noroeste 12 Norte 0 1005.1 0.4 79
2019-11-18 07:00:00 11.8 5 Sudeste 23 Noroeste 0.6 1004.3 0.2 75
2019-11-18 06:00:00 12.9 3 Sudoeste 24 Norte 0.4 1004.4 -0.1 74
2019-11-18 05:00:00 13.6 9 Nordeste 15 Nordeste 0.6 1004.7 0.2 79
2019-11-18 04:00:00 14.1 4 Este 9 Sudoeste 0.2 1004.1 -1.4 73
2019-11-18 03:00:00 14.9 6 Sudoeste 18 Oeste 0 1004.5 -1.9 60
2019-11-18 02:00:00 14 0 Calma 8 Sur 0 1004.5 -2.4 59
2019-11-18 01:00:00 14.5 3 Oeste 9 Noroeste 0 1005.5 -2.1 56
2019-11-18 00:00:00 14.7 4 Noroeste 10 Norte 0 1006.4 -1.5 55
2019-11-17 23:00:00 14.7 3 Sudoeste 10 Noroeste 0 1006.9 -1.6 60
2019-11-17 22:00:00 14.9 5 Oeste 21 Oeste 0 1007.6 -1.2 62
2019-11-17 21:00:00 15.8 8 Sudoeste 29 Oeste 0 1007.9 -1.1 55
2019-11-17 20:00:00 15.8 16 Oeste 33 Oeste 0 1008.5 -0.7 51
2019-11-17 19:00:00 15.9 14 Oeste 45 Oeste 0 1008.8 -0.9 49
2019-11-17 18:00:00 16.5 19 Oeste 35 Oeste 0 1009 -1 45
2019-11-17 17:00:00 16.8 13 Oeste 27 Sudoeste 0 1009.2 -1.7 45
2019-11-17 16:00:00 16.9 6 Sudoeste 24 Sur 0 1009.7 -2 33
2019-11-17 15:00:00 17 9 Sudoeste 27 Sudoeste 0 1010 -2.6 30
2019-11-17 14:00:00 16.6 11 Oeste 29 Sudoeste 0 1010.9 -2.4 40
2019-11-17 13:00:00 16.4 11 Sudoeste 35 Sur 0 1011.7 -1.9 40
2019-11-17 12:00:00 18.7 12 Sudoeste 24 Oeste 0 1012.6 -0.8 20
2019-11-17 11:00:00 17.2 12 Oeste 31 Oeste 0 1013.3 0.2 25
2019-11-17 10:00:00 14.2 13 Noroeste 24 Noroeste 0 1013.6 0.6 32
2019-11-17 09:00:00 12.3 5 Oeste 19 Noroeste 0 1013.4 0.5 39
2019-11-17 08:00:00 9.5 9 Noroeste 15 Noroeste 0 1013.1 0.2 44
2019-11-17 07:00:00 8 8 Noroeste 16 Noroeste 0 1013 0.3 50
2019-11-17 06:00:00 9.3 8 Norte 22 Noroeste 0 1012.9 -0.2 44
2019-11-17 05:00:00 10.1 8 Norte 25 Noroeste 0 1012.9 -0.2 41
2019-11-17 04:00:00 9.5 15 Noroeste 26 Noroeste 0 1012.7 -0.4 42
2019-11-17 03:00:00 8 13 Noroeste 20 Noroeste 0 1013.1 -0.1 45
2019-11-17 02:00:00 9.1 4 Norte 17 Noroeste 0 1013.1 -0.5 40
2019-11-17 01:00:00 8.8 12 Oeste 19 Noroeste 0 1013.1 -0.4 44
2019-11-17 00:00:00 10.7 9 Noroeste 18 Noroeste 0 1013.2 0.3 39
2019-11-16 23:00:00 10.7 9 Noroeste 27 Oeste 0 1013.6 1.3 40
2019-11-16 22:00:00 11.1 13 Oeste 29 Noroeste 0 1013.5 2.1 40
2019-11-16 21:00:00 11.1 7 Noroeste 18 Oeste 0 1012.9 2.5 39
2019-11-16 20:00:00 11.6 7 Noroeste 11 Noroeste 0 1012.3 2.7 36
2019-11-16 19:00:00 12.9 4 Noroeste 10 Nordeste 0 1011.4 2.3 33
2019-11-16 18:00:00 15.2 5 Este 22 Este 0 1010.4 1.5 31
2019-11-16 17:00:00 17.7 13 Nordeste 23 Noroeste 0 1009.6 0.7 26
2019-11-16 16:00:00 18.9 14 Oeste 31 Noroeste 0 1009.1 0.1 19
2019-11-16 15:00:00 18.6 12 Oeste 35 Oeste 0 1008.9 -0.8 21
2019-11-16 14:00:00 17.7 5 Norte 31 Noroeste 0 1008.9 -0.5 24
2019-11-16 13:00:00 16.8 15 Noroeste 40 Noroeste 0 1009 0.1 23
2019-11-16 12:00:00 15.9 15 Noroeste 31 Noroeste 0 1009.7 1.5 26
2019-11-16 11:00:00 14.7 17 Noroeste 39 Noroeste 0 1009.4 1.7 29
2019-11-16 10:00:00 13.3 20 Noroeste 40 Norte 0 1008.9 2.3 31
2019-11-16 09:00:00 11.8 18 Noroeste 35 Norte 0 1008.2 2.5 36
2019-11-16 08:00:00 10.1 16 Noroeste 31 Noroeste 0 1007.7 2.7 41
2019-11-16 07:00:00 9.3 17 Noroeste 28 Norte 0 1006.6 2 46
2019-11-16 06:00:00 10.8 17 Noroeste 34 Noroeste 0 1005.7 1.6 40
2019-11-16 05:00:00 11.4 18 Noroeste 39 Noroeste 0 1005 1.2 38
2019-11-16 04:00:00 11.3 16 Noroeste 32 Noroeste 0 1004.6 0.4 37
2019-11-16 03:00:00 11.5 15 Noroeste 33 Noroeste 0 1004.1 -0.3 36
2019-11-16 02:00:00 12.1 13 Noroeste 29 Noroeste 0 1003.8 -0.2 34
2019-11-16 01:00:00 12 14 Noroeste 29 Noroeste 0 1004.2 0.6 33
2019-11-16 00:00:00 10.5 9 Oeste 22 Noroeste 0 1004.4 1.4 39
2019-11-15 23:00:00 11.5 13 Norte 25 Norte 0 1004 1.4 33
2019-11-15 22:00:00 11.2 10 Norte 25 Norte 0 1003.6 1.3 35
2019-11-15 21:00:00 11.7 13 Noroeste 25 Norte 0 1003 1.1 33
2019-11-15 20:00:00 11.8 8 Noroeste 19 Norte 0 1002.6 1.1 33
2019-11-15 19:00:00 11.7 5 Noroeste 18 Noroeste 0 1002.3 1.1 34
2019-11-15 18:00:00 13.5 9 Noroeste 24 Oeste 0 1001.9 1.1 30
2019-11-15 17:00:00 14.6 6 Noroeste 27 Oeste 0 1001.5 0.6 27
2019-11-15 16:00:00 16.4 12 Noroeste 37 Noroeste 0 1001.2 -0.4 23
2019-11-15 15:00:00 17.5 22 Oeste 42 Oeste 0 1000.8 -1.4 23
2019-11-15 14:00:00 17.2 22 Oeste 44 Oeste 0 1000.9 -1.6 24
2019-11-15 13:00:00 16.8 21 Noroeste 46 Noroeste 0 1001.6 -0.9 24
2019-11-15 12:00:00 15.8 22 Noroeste 44 Noroeste 0 1002.2 -0.1 27
2019-11-15 11:00:00 15 22 Oeste 43 Noroeste 0 1002.5 1 31
2019-11-15 10:00:00 13 28 Noroeste 49 Noroeste 0 1002.5 1.5 35
2019-11-15 09:00:00 12 11 Noroeste 27 Noroeste 0 1002.3 1.7 40
2019-11-15 08:00:00 10.6 8 Noroeste 23 Noroeste 0 1001.5 1 44
2019-11-15 07:00:00 10.1 3 Nordeste 17 Oeste 0 1001 0.5 45
2019-11-15 06:00:00 11.4 12 Oeste 35 Oeste 0 1000.6 0.1 40
2019-11-15 05:00:00 11.4 12 Oeste 26 Oeste 0 1000.5 0.4 43
2019-11-15 04:00:00 12.3 6 Oeste 42 Oeste 0 1000.5 0.2 41
2019-11-15 03:00:00 12.7 8 Oeste 35 Noroeste 0 1000.5 0.1 38
2019-11-15 02:00:00 13.5 21 Oeste 40 Oeste 0 1000.1 0.1 36
2019-11-15 01:00:00 13.6 13 Oeste 37 Oeste 0 1000.3 0 37
2019-11-15 00:00:00 13.5 14 Oeste 49 Noroeste 0 1000.4 0.2 38
2019-11-14 23:00:00 14 26 Oeste 45 Oeste 0 1000 0.7 37
2019-11-14 22:00:00 13.9 14 Oeste 32 Noroeste 0 1000.3 0.6 37
2019-11-14 21:00:00 13.4 9 Oeste 44 Oeste 0 1000.2 0.2 38
2019-11-14 20:00:00 14.9 31 Noroeste 53 Oeste 0 999.3 0 32
2019-11-14 19:00:00 14.2 19 Oeste 42 Oeste 0 999.7 0.9 34
2019-11-14 18:00:00 15 20 Oeste 53 Oeste 0 1000 2 32
2019-11-14 17:00:00 16.8 29 Oeste 55 Oeste 0 999.3 0.8 30
2019-11-14 16:00:00 17.6 37 Oeste 59 Oeste 0 998.8 0.4 37
2019-11-14 15:00:00 19.8 32 Noroeste 57 Noroeste 0 998 -2.1 32
2019-11-14 14:00:00 19.1 32 Oeste -- -- -- 998.5 -2.1 33
2019-11-14 13:00:00 19 34 Oeste 57 Noroeste 0 998.4 -2.5 32
2019-11-14 12:00:00 19.4 21 Oeste 53 Noroeste 0 1000.1 -0.8 29
2019-11-14 11:00:00 19 17 Noroeste 49 Noroeste 0 1000.6 -0.7 31
2019-11-14 10:00:00 18.2 26 Noroeste 58 Noroeste 0 1000.9 -0.7 32
2019-11-14 09:00:00 18.1 26 Noroeste 46 Noroeste 0 1000.9 -1.6 34
2019-11-14 08:00:00 16.7 10 Oeste 25 Sudoeste 0 1001.3 -2 37
2019-11-14 07:00:00 16.6 14 Oeste 34 Oeste 0 1001.6 -3.4 36
2019-11-14 06:00:00 16.6 14 Oeste 32 Oeste 0 1002.5 -3.4 43
2019-11-14 05:00:00 16.6 12 Oeste 22 Oeste 0 1003.3 -3.3 46
2019-11-14 04:00:00 17.4 12 Oeste 20 Oeste 0 1005 -2.4 44
2019-11-14 03:00:00 18.1 5 Sudoeste 33 Oeste 0 1005.9 -2.2 43
2019-11-14 02:00:00 16.6 8 Noroeste 14 Norte 0 1006.6 -2.1 49
2019-11-14 01:00:00 16.2 3 Nordeste 15 Nordeste 0 1007.4 -1.3 54
2019-11-14 00:00:00 16.5 3 Sur 14 Noroeste 0 1008.1 -0.5 49
2019-11-13 23:00:00 18.3 8 Noroeste 24 Noroeste 0 1008.7 0.3 43
2019-11-13 22:00:00 18.5 12 Noroeste 27 Noroeste 0 1008.7 0.7 43
2019-11-13 21:00:00 19.2 15 Noroeste 41 Noroeste 0 1008.6 1.7 42
2019-11-13 20:00:00 19.4 17 Noroeste 33 Noroeste 0 1008.4 2.6 41
2019-11-13 19:00:00 20.4 18 Oeste 39 Oeste 0 1008 2.9 38
2019-11-13 18:00:00 21.4 15 Oeste 36 Oeste 0 1006.9 2.3 34
2019-11-13 17:00:00 23.4 23 Oeste 45 Oeste 0 1005.8 1.6 32
2019-11-13 16:00:00 24.9 25 Oeste 54 Oeste 0 1005.1 0.5 29
2019-11-13 15:00:00 25 31 Oeste 55 Oeste 0 1004.6 -0.6 28
2019-11-13 14:00:00 24.6 33 Oeste 59 Noroeste 0 1004.2 -1.1 30
2019-11-13 13:00:00 23.7 35 Noroeste 64 Noroeste 0 1004.6 -0.3 33
2019-11-13 12:00:00 22.9 33 Oeste 69 Oeste 0 1005.2 0.6 36
2019-11-13 11:00:00 21.5 31 Oeste 64 Oeste 0 1005.3 1.5 38
2019-11-13 10:00:00 19.8 30 Noroeste 52 Noroeste 0 1004.9 1.6 41
2019-11-13 09:00:00 17.9 27 Noroeste 57 Oeste 0 1004.6 0.4 45
2019-11-13 08:00:00 17.3 29 Oeste 51 Noroeste 0 1003.8 -1.1 47
2019-11-13 07:00:00 17 27 Oeste 52 Oeste 0 1003.3 -1.7 46
2019-11-13 06:00:00 16.6 19 Oeste 45 Oeste 0 1004.2 -1.6 43
2019-11-13 05:00:00 16.9 21 Oeste 43 Oeste 0 1004.9 -1.2 39
2019-11-13 04:00:00 16.8 17 Oeste 36 Oeste 0 1005 -2.1 41
2019-11-13 03:00:00 17 18 Oeste 44 Noroeste 0 1005.8 -1.9 36
2019-11-13 02:00:00 16.6 19 Noroeste 32 Noroeste 0 1006.1 -2.9 36
2019-11-13 01:00:00 16.5 17 Noroeste 34 Noroeste 0 1007.1 -1.5 38
2019-11-13 00:00:00 15.8 11 Noroeste 21 Noroeste 0 1007.7 -1.2 39
2019-11-12 23:00:00 15.4 14 Noroeste 28 Noroeste 0 1009 0.5 39
2019-11-12 22:00:00 14.7 10 Noroeste 21 Noroeste 0 1008.6 0.1 41
2019-11-12 21:00:00 14.9 10 Noroeste 19 Noroeste 0 1008.9 0.8 47
2019-11-12 20:00:00 15 6 Noroeste 17 Norte 0 1008.5 0.3 68
2019-11-12 19:00:00 16.2 7 Nordeste 16 Este 0 1008.5 0.4 65
2019-11-12 18:00:00 17.1 5 Sur 21 Sudoeste 0 1008.1 0.3 61
2019-11-12 17:00:00 18.8 11 Sudoeste 27 Sudoeste 0 1008.2 0.1 51
2019-11-12 16:00:00 20.1 12 Sur 24 Sur 0 1008.1 -0.6 42
2019-11-12 15:00:00 20.5 12 Sudeste 29 Sudeste 0 1007.8 -1.9 31
2019-11-12 14:00:00 21.3 11 Nordeste 37 Norte 0 1008.1 -2.1 17
2019-11-12 13:00:00 20.6 17 Norte 40 Noroeste 0 1008.7 -1.4 17
2019-11-12 12:00:00 19.9 20 Noroeste 47 Noroeste 0 1009.7 -0.3 19
2019-11-12 11:00:00 18.6 18 Noroeste 37 Norte 0 1010.2 0.4 23
2019-11-12 10:00:00 17.5 15 Noroeste 32 Noroeste 0 1010.1 0.6 25
2019-11-12 09:00:00 16.7 9 Oeste 19 Noroeste 0 1010 0.6 30
2019-11-12 08:00:00 13 4 Sudoeste 17 Sudoeste 0 1009.8 0.9 44
2019-11-12 07:00:00 13.1 6 Sudoeste 14 Sudoeste 0 1009.5 0.6 41
2019-11-12 06:00:00 12.6 3 Sudoeste 16 Sudoeste 0 1009.4 0.2 45
2019-11-12 05:00:00 14.5 4 Oeste 18 Noroeste 0 1008.9 -0.6 39
2019-11-12 04:00:00 15.2 5 Norte 35 Noroeste 0 1008.9 -1.1 34
2019-11-12 03:00:00 13.8 9 Sudoeste 21 Oeste 0 1009.2 -1.2 48
2019-11-12 02:00:00 14.6 6 Sudeste 17 Sur 0 1009.5 -1.1 48
2019-11-12 01:00:00 13.2 4 Sudoeste 13 Noroeste 0 1010 -0.5 57
2019-11-12 00:00:00 13.8 7 Oeste 14 Nordeste 0 1010.4 0.4 52
2019-11-11 23:00:00 14.8 6 Nordeste 12 Nordeste 0 1010.6 1 47
2019-11-11 22:00:00 14.1 5 Nordeste 9 Nordeste 0 1010.5 1.1 47
2019-11-11 21:00:00 14.3 6 Nordeste 12 Nordeste 0 1010 1.1 44
2019-11-11 20:00:00 14.3 6 Norte 10 Nordeste 0 1009.6 1.1 42
2019-11-11 19:00:00 15.8 6 Nordeste 11 Este 0 1009.4 1 38
2019-11-11 18:00:00 16.9 6 Nordeste 12 Oeste 0 1008.9 0 38
2019-11-11 17:00:00 18.4 11 Oeste 27 Oeste 0 1008.5 -0.9 31
2019-11-11 16:00:00 18.8 16 Oeste 28 Oeste 0 1008.4 -2 29
2019-11-11 15:00:00 19.4 8 Oeste 26 Oeste 0 1008.9 -2.8 26
2019-11-11 14:00:00 18 11 Sudoeste 32 Oeste 0 1009.4 -2.9 28
2019-11-11 13:00:00 17.5 20 Oeste 36 Noroeste 0 1010.4 -2.2 32
2019-11-11 12:00:00 16.2 21 Oeste 45 Noroeste 0 1011.7 -1 36
2019-11-11 11:00:00 15.3 18 Oeste 37 Noroeste 0 1012.3 0 38
2019-11-11 10:00:00 15.4 13 Noroeste 29 Oeste 0 1012.6 0.7 29
2019-11-11 09:00:00 14 8 Sudoeste 26 Oeste 0 1012.7 0.7 32
2019-11-11 08:00:00 12.9 11 Noroeste 19 Noroeste 0 1012.3 0.5 32
2019-11-11 07:00:00 12 3 Oeste 19 Norte 0 1011.9 1.2 36
2019-11-11 06:00:00 13.1 10 Noroeste 27 Noroeste 0 1012 0.8 31
2019-11-11 05:00:00 13.6 9 Nordeste 65 Noroeste 0 1011.8 0.3 31
2019-11-11 04:00:00 13.6 20 Noroeste 59 Noroeste 0 1010.7 -0.6 32
2019-11-11 03:00:00 13.9 29 Noroeste 59 Noroeste 0 1011.2 -0.1 31
2019-11-11 02:00:00 14 35 Norte 72 Norte 0 1011.5 0.1 31
2019-11-11 01:00:00 14.2 28 Norte 58 Norte 0 1011.3 0.1 30
2019-11-11 00:00:00 13 21 Noroeste 42 Oeste 0 1011.3 0.2 39